createdAt,value
2019-05-29T00:01:10.494Z,55.73
2019-05-29T00:03:49.310Z,64.40
2019-05-29T00:06:30.036Z,59.70
2019-05-29T00:09:10.649Z,55.47
2019-05-29T00:11:51.639Z,60.33
2019-05-29T00:14:32.599Z,49.63
2019-05-29T00:17:14.585Z,63.00
2019-05-29T00:19:54.506Z,53.87
2019-05-29T00:22:35.157Z,50.03
2019-05-29T00:25:16.679Z,51.77
2019-05-29T00:27:57.081Z,47.33
2019-05-29T00:30:38.039Z,48.60
2019-05-29T00:33:19.004Z,50.67
2019-05-29T00:35:59.617Z,51.17
2019-05-29T00:38:40.325Z,68.23
2019-05-29T00:41:20.789Z,53.87
2019-05-29T00:44:01.891Z,55.00
2019-05-29T00:46:42.521Z,54.53
2019-05-29T00:49:23.505Z,54.63
2019-05-29T00:52:04.444Z,51.43
2019-05-29T00:54:45.200Z,48.60
2019-05-29T00:57:25.518Z,43.83
2019-05-29T01:00:05.891Z,45.60
2019-05-29T01:02:46.905Z,43.27
2019-05-29T01:05:27.647Z,43.67
2019-05-29T01:08:08.387Z,40.13
2019-05-29T01:10:48.932Z,42.90
2019-05-29T01:13:29.588Z,46.23
2019-05-29T01:16:11.312Z,47.33
2019-05-29T01:18:51.808Z,46.33
2019-05-29T01:21:32.510Z,46.03
2019-05-29T01:24:12.756Z,43.07
2019-05-29T01:26:54.038Z,47.93
2019-05-29T01:29:34.131Z,40.17
2019-05-29T01:32:15.483Z,43.30
2019-05-29T01:34:55.480Z,42.63
2019-05-29T01:37:36.307Z,44.83
2019-05-29T01:40:22.114Z,47.97
2019-05-29T01:42:58.195Z,43.30
2019-05-29T01:45:38.516Z,45.47
2019-05-29T01:48:19.535Z,42.03
2019-05-29T01:51:00.126Z,44.63
2019-05-29T01:53:41.081Z,42.62
2019-05-29T01:56:21.921Z,42.80
2019-05-29T01:59:02.417Z,43.70
2019-05-29T02:01:42.998Z,47.13
2019-05-29T02:04:24.214Z,48.97
2019-05-29T02:07:04.397Z,45.03
2019-05-29T02:09:45.246Z,45.90
2019-05-29T02:12:26.420Z,44.87
2019-05-29T02:15:21.083Z,42.97
2019-05-29T02:17:48.397Z,44.90
2019-05-29T02:20:28.758Z,46.48
2019-05-29T02:23:09.403Z,50.67
2019-05-29T02:25:50.368Z,44.60
2019-05-29T02:28:30.686Z,39.47
2019-05-29T02:31:11.974Z,47.77
2019-05-29T02:33:52.599Z,46.35
2019-05-29T02:36:33.593Z,44.23
2019-05-29T02:39:13.861Z,40.27
2019-05-29T02:41:54.218Z,38.67
2019-05-29T02:44:34.850Z,44.57
2019-05-29T02:47:15.547Z,40.35
2019-05-29T02:49:55.600Z,39.90
2019-05-29T02:52:36.439Z,42.37
2019-05-29T02:55:16.857Z,41.63
2019-05-29T02:57:57.628Z,51.33
2019-05-29T03:03:21.469Z,42.97
2019-05-29T03:06:01.380Z,46.70
2019-05-29T03:08:42.157Z,41.07
2019-05-29T03:11:23.074Z,39.23
2019-05-29T03:14:04.639Z,38.20
2019-05-29T03:16:45.395Z,36.23
2019-05-29T03:19:27.892Z,45.80
2019-05-29T03:22:07.978Z,38.30
2019-05-29T03:24:48.934Z,39.18
2019-05-29T05:22:46.707Z,26.42
2019-05-29T05:25:27.696Z,29.20
2019-05-29T05:28:09.092Z,28.10
2019-05-29T05:30:50.178Z,35.28
2019-05-29T05:33:32.421Z,28.05
2019-05-29T05:36:13.528Z,34.60
2019-05-29T05:38:54.412Z,31.62
2019-05-29T05:41:36.852Z,34.10
2019-05-29T05:44:17.642Z,28.90
2019-05-29T05:46:58.120Z,30.52
2019-05-29T05:49:39.407Z,29.63
2019-05-29T05:52:19.673Z,30.10
2019-05-29T05:55:00.223Z,31.70
2019-05-29T05:57:43.865Z,30.62
2019-05-29T06:00:24.714Z,32.60
2019-05-29T06:03:05.171Z,32.65
2019-05-29T06:05:45.283Z,29.57
2019-05-29T06:08:26.321Z,28.17
2019-05-29T06:11:07.866Z,28.70
2019-05-29T06:13:48.705Z,31.82
2019-05-29T06:16:28.858Z,29.15
2019-05-29T06:19:09.402Z,29.60
2019-05-29T06:21:49.512Z,30.75
2019-05-29T06:24:30.139Z,31.50
2019-05-29T06:27:10.439Z,29.72
2019-05-29T06:29:50.941Z,32.35
2019-05-29T06:32:31.458Z,30.97
2019-05-29T06:35:12.147Z,29.20
2019-05-29T06:37:52.526Z,33.73
2019-05-29T06:40:33.963Z,32.50
2019-05-29T06:43:13.508Z,29.20
2019-05-29T06:45:54.214Z,29.32
2019-05-29T06:48:53.550Z,31.20
2019-05-29T06:51:15.741Z,31.05
2019-05-29T06:53:55.668Z,30.27
2019-05-29T06:56:40.063Z,28.60
2019-05-29T06:59:24.103Z,26.30
2019-05-29T07:02:12.376Z,28.98
2019-05-29T07:04:58.726Z,32.75
2019-05-29T07:07:40.554Z,30.95
2019-05-29T07:10:21.021Z,32.88
2019-05-29T07:13:01.769Z,28.57
2019-05-29T07:15:42.921Z,30.65
2019-05-29T07:18:23.431Z,28.27
2019-05-29T07:21:04.074Z,33.30
2019-05-29T07:23:45.197Z,31.77
2019-05-29T07:26:25.583Z,30.80
2019-05-29T07:29:08.286Z,31.77
2019-05-29T07:31:47.288Z,33.20
2019-05-29T07:34:28.639Z,30.30
2019-05-29T07:37:09.311Z,33.75
2019-05-29T07:39:49.825Z,29.52
2019-05-29T07:42:30.210Z,30.55
2019-05-29T07:45:11.098Z,32.65
2019-05-29T07:47:51.972Z,34.25
2019-05-29T07:50:33.269Z,30.15
2019-05-29T07:53:13.961Z,33.13
2019-05-29T07:55:54.837Z,34.18
2019-05-29T07:58:35.520Z,28.98
2019-05-29T08:01:16.650Z,36.60
2019-05-29T08:03:57.755Z,30.30
2019-05-29T08:06:45.402Z,33.13
2019-05-29T08:09:20.916Z,38.48
2019-05-29T08:12:01.541Z,37.55
2019-05-29T08:14:42.080Z,34.30
2019-05-29T08:17:22.705Z,31.02
2019-05-29T08:20:07.603Z,33.60
2019-05-29T08:22:44.576Z,32.65
2019-05-29T08:25:25.199Z,36.83
2019-05-29T08:28:05.836Z,35.70
2019-05-29T08:30:51.735Z,31.33
2019-05-29T08:33:28.730Z,29.23
2019-05-29T08:36:09.576Z,38.25
2019-05-29T08:38:51.535Z,31.37
2019-05-29T08:41:30.954Z,30.60
2019-05-29T08:44:11.171Z,30.37
2019-05-29T08:47:04.226Z,34.45
2019-05-29T08:49:31.705Z,29.20
2019-05-29T08:52:12.690Z,35.52
2019-05-29T08:54:53.210Z,30.32
2019-05-29T08:57:33.352Z,29.70
2019-05-29T09:00:14.311Z,28.35
2019-05-29T09:02:54.862Z,32.85
2019-05-29T09:05:35.133Z,33.40
2019-05-29T09:08:15.539Z,29.12
2019-05-29T09:10:56.488Z,29.55
2019-05-29T09:13:37.054Z,25.17
2019-05-29T09:16:17.357Z,30.32
2019-05-29T09:18:57.858Z,33.00
2019-05-29T09:21:38.189Z,30.00
2019-05-29T09:24:19.373Z,29.20
2019-05-29T09:27:00.057Z,31.82
2019-05-29T09:29:40.720Z,33.48
2019-05-29T09:32:46.450Z,27.62
2019-05-29T09:35:02.864Z,26.70
2019-05-29T09:37:43.638Z,31.95
2019-05-29T09:40:25.018Z,30.50
2019-05-29T09:43:05.423Z,33.10
2019-05-29T09:45:46.529Z,28.57
2019-05-29T09:48:24.834Z,25.40
2019-05-29T09:50:52.133Z,29.10
2019-05-29T09:53:22.025Z,30.10
2019-05-29T09:55:52.257Z,28.50
2019-05-29T09:58:22.962Z,29.87
2019-05-29T10:01:16.207Z,34.80
2019-05-29T10:03:24.098Z,27.65
2019-05-29T10:05:55.656Z,31.57
2019-05-29T10:08:24.932Z,28.17
2019-05-29T10:11:01.427Z,33.30
2019-05-29T10:13:25.100Z,29.07
2019-05-29T10:15:55.946Z,27.13
2019-05-29T10:18:32.057Z,32.40
2019-05-29T10:20:56.497Z,28.65
2019-05-29T10:23:25.510Z,26.10
2019-05-29T10:25:56.467Z,26.93
2019-05-29T10:28:25.705Z,29.75
2019-05-29T10:30:55.332Z,31.02
2019-05-29T10:33:25.410Z,29.45
2019-05-29T10:35:55.507Z,31.25
2019-05-29T10:38:24.786Z,26.65
2019-05-29T10:41:05.273Z,26.02
2019-05-29T10:43:33.707Z,28.65
2019-05-29T10:45:54.493Z,27.62
2019-05-29T10:48:24.361Z,28.67
2019-05-29T10:50:55.339Z,27.90
2019-05-29T10:53:24.250Z,27.77
2019-05-29T10:55:54.906Z,29.45
2019-05-29T10:59:34.039Z,30.30
2019-05-29T11:02:03.762Z,30.92
2019-05-29T11:04:33.596Z,27.00
2019-05-29T11:07:03.062Z,29.77
2019-05-29T11:09:43.866Z,26.55
2019-05-29T11:12:03.116Z,30.62
2019-05-29T11:14:32.907Z,29.55
2019-05-29T11:17:02.448Z,28.17
2019-05-29T11:19:31.819Z,33.85
2019-05-29T11:22:22.570Z,31.40
2019-05-29T11:24:32.314Z,30.32
2019-05-29T11:27:02.368Z,35.88
2019-05-29T11:29:31.735Z,29.10
2019-05-29T11:32:01.188Z,31.15
2019-05-29T11:34:30.709Z,29.98
2019-05-29T11:37:00.359Z,29.57
2019-05-29T11:39:30.032Z,32.98
2019-05-29T11:41:59.707Z,31.30
2019-05-29T11:44:29.727Z,36.25
2019-05-29T11:47:00.221Z,28.25
2019-05-29T11:49:29.887Z,27.70
2019-05-29T11:52:21.676Z,33.15
2019-05-29T11:54:30.563Z,29.37
2019-05-29T11:57:00.676Z,30.08
2019-05-29T11:59:30.782Z,29.48
2019-05-29T12:02:01.034Z,35.17
2019-05-29T12:04:30.779Z,35.75
2019-05-29T12:07:01.489Z,37.83
2019-05-29T12:09:33.320Z,38.55
2019-05-29T12:12:02.164Z,35.00
2019-05-29T12:14:31.418Z,44.63
2019-05-29T12:17:02.586Z,33.25
2019-05-29T12:19:31.710Z,37.93
2019-05-29T12:22:02.578Z,36.95
2019-05-29T12:24:31.216Z,41.80
2019-05-29T12:27:02.658Z,39.17
2019-05-29T12:29:32.769Z,32.90
2019-05-29T12:32:07.410Z,38.25
2019-05-29T12:34:32.869Z,35.20
2019-05-29T12:37:03.729Z,34.40
2019-05-29T12:39:32.943Z,34.38
2019-05-29T12:42:03.806Z,32.70
2019-05-29T12:44:32.979Z,45.03
2019-05-29T12:47:04.043Z,37.85
2019-05-29T12:49:33.080Z,34.53
2019-05-29T12:52:06.610Z,36.83
2019-05-29T12:54:33.172Z,34.57
2019-05-29T12:57:05.362Z,34.78
2019-05-29T12:59:35.722Z,35.57
2019-05-29T13:02:05.441Z,36.03
2019-05-29T13:05:05.056Z,35.83
2019-05-29T13:07:05.860Z,37.53
2019-05-29T13:09:35.366Z,42.30
2019-05-29T13:12:05.077Z,37.57
2019-05-29T13:14:34.620Z,38.40
2019-05-29T13:17:05.213Z,38.67
2019-05-29T13:19:34.232Z,43.23
2019-05-29T13:22:05.782Z,42.93
2019-05-29T13:24:34.277Z,47.20
2019-05-29T13:27:03.827Z,43.33
2019-05-29T13:29:33.367Z,45.70
2019-05-29T13:32:05.236Z,40.77
2019-05-29T13:34:33.259Z,39.63
2019-05-29T13:37:04.730Z,42.13
2019-05-29T13:39:33.013Z,37.47
2019-05-29T13:42:08.629Z,47.23
2019-05-29T13:44:33.122Z,41.70
2019-05-29T13:47:04.116Z,41.53
2019-05-29T13:49:34.114Z,38.13
2019-05-29T13:52:08.276Z,40.80
2019-05-29T13:54:33.778Z,38.00
2019-05-29T13:57:04.526Z,40.70
2019-05-29T13:59:33.401Z,38.80
2019-05-29T14:02:05.792Z,44.50
2019-05-29T14:04:34.660Z,38.30
2019-05-29T14:07:04.948Z,41.97
2019-05-29T14:09:34.229Z,44.10
2019-05-29T14:12:05.090Z,39.53
2019-05-29T14:14:34.228Z,38.20
2019-05-29T14:17:04.555Z,38.90
2019-05-29T14:19:35.377Z,41.27
2019-05-29T14:22:05.104Z,40.90
2019-05-29T14:24:35.159Z,39.73
2019-05-29T14:27:05.369Z,41.73
2019-05-29T14:29:35.642Z,40.77
2019-05-29T14:32:07.230Z,39.47
2019-05-29T14:34:40.444Z,45.07
2019-05-29T14:37:11.930Z,39.23
2019-05-29T14:39:42.188Z,43.27
2019-05-29T14:42:13.282Z,40.53
2019-05-29T14:44:43.199Z,44.80
2019-05-29T14:47:13.446Z,43.87
2019-05-29T14:49:45.333Z,44.20
2019-05-29T14:52:15.249Z,41.60
2019-05-29T14:54:47.619Z,41.67
2019-05-29T14:57:25.196Z,40.20
2019-05-29T14:59:48.479Z,44.57
2019-05-29T15:02:23.533Z,40.13
2019-05-29T15:04:52.181Z,45.33
2019-05-29T15:07:23.365Z,44.33
2019-05-29T15:09:54.463Z,41.30
2019-05-29T15:12:27.956Z,46.47
2019-05-29T15:14:57.787Z,44.83
2019-05-29T15:17:29.009Z,42.50
2019-05-29T15:19:58.370Z,39.93
2019-05-29T15:22:27.551Z,38.20
2019-05-29T15:25:04.773Z,40.90
2019-05-29T15:27:28.599Z,42.80
2019-05-29T15:29:58.145Z,42.00
2019-05-29T15:32:27.595Z,45.17
2019-05-29T15:34:57.323Z,45.13
2019-05-29T15:37:27.127Z,38.80
2019-05-29T15:39:57.154Z,44.03
2019-05-29T15:42:27.257Z,43.63
2019-05-29T15:44:56.938Z,43.97
2019-05-29T15:47:26.872Z,41.57
2019-05-29T15:49:56.932Z,47.77
2019-05-29T15:52:27.387Z,41.97
2019-05-29T15:54:57.831Z,49.23
2019-05-29T15:57:28.568Z,50.50
2019-05-29T15:59:58.359Z,45.07
2019-05-29T16:02:29.128Z,45.53
2019-05-29T16:04:59.449Z,42.90
2019-05-29T16:07:31.254Z,46.30
2019-05-29T16:10:01.012Z,42.83
2019-05-29T16:12:31.409Z,41.33
2019-05-29T16:15:01.413Z,46.30
2019-05-29T16:17:31.148Z,48.10
2019-05-29T16:20:00.574Z,48.50
2019-05-29T16:22:32.558Z,45.70
2019-05-29T16:25:02.624Z,49.40
2019-05-29T16:27:31.796Z,50.73
2019-05-29T16:30:00.677Z,43.60
2019-05-29T16:32:30.319Z,44.07
2019-05-29T16:34:59.738Z,43.90
2019-05-29T16:37:29.325Z,42.23
2019-05-29T16:39:59.281Z,41.87
2019-05-29T16:42:29.086Z,46.00
2019-05-29T16:45:00.321Z,40.17
2019-05-29T16:47:30.205Z,45.53
2019-05-29T16:49:59.960Z,42.03
2019-05-29T16:52:30.672Z,52.93
2019-05-29T16:55:00.421Z,42.53
2019-05-29T16:57:30.094Z,39.40
2019-05-29T17:00:01.184Z,39.23
2019-05-29T17:02:31.258Z,46.60
2019-05-29T17:05:01.397Z,42.67
2019-05-29T17:07:31.481Z,44.97
2019-05-29T17:10:01.309Z,42.63
2019-05-29T17:12:31.388Z,42.07
2019-05-29T17:15:00.556Z,37.43
2019-05-29T17:17:30.673Z,41.00
2019-05-29T17:20:00.353Z,38.90
2019-05-29T17:22:30.250Z,43.13
2019-05-29T17:25:01.085Z,44.20
2019-05-29T17:27:31.311Z,42.23
2019-05-29T17:30:00.809Z,45.57
2019-05-29T17:32:32.770Z,40.83
2019-05-29T17:35:02.426Z,46.40
2019-05-29T17:37:32.120Z,43.80
2019-05-29T17:40:01.470Z,38.80
2019-05-29T17:42:31.310Z,39.57
2019-05-29T17:45:00.908Z,38.43
2019-05-29T17:47:31.336Z,37.73
2019-05-29T17:50:01.356Z,43.57
2019-05-29T17:52:31.105Z,37.30
2019-05-29T17:55:01.054Z,44.47
2019-05-29T17:57:30.450Z,40.47
2019-05-29T18:00:02.748Z,41.57
2019-05-29T18:02:32.287Z,38.30
2019-05-29T18:05:02.299Z,46.23
2019-05-29T18:07:31.669Z,39.70
2019-05-29T18:10:01.058Z,43.03
2019-05-29T18:12:31.081Z,37.47
2019-05-29T18:15:01.197Z,38.17
2019-05-29T18:20:14.698Z,39.80
2019-05-29T18:22:42.830Z,39.00
2019-05-29T18:25:13.864Z,37.60
2019-05-29T18:27:44.381Z,42.50
2019-05-29T18:30:13.646Z,35.77
2019-05-29T18:32:43.724Z,35.30
2019-05-29T18:35:13.311Z,40.77
2019-05-29T18:37:42.816Z,40.87
2019-05-29T18:40:13.002Z,42.60
2019-05-29T18:42:42.797Z,38.00
2019-05-29T18:45:20.375Z,36.90
2019-05-29T18:47:42.626Z,39.03
2019-05-29T18:50:12.724Z,36.53
2019-05-29T18:52:42.724Z,35.67
2019-05-29T18:55:13.127Z,36.27
2019-05-29T18:57:43.377Z,35.13
2019-05-29T19:00:13.052Z,39.37
2019-05-29T19:02:42.660Z,33.60
2019-05-29T19:05:12.362Z,39.77
2019-05-29T19:07:42.709Z,36.33
2019-05-29T19:10:13.106Z,34.67
2019-05-29T19:12:43.264Z,34.40
2019-05-29T19:15:13.334Z,38.43
2019-05-29T19:17:43.203Z,33.63
2019-05-29T19:20:13.476Z,34.63
2019-05-29T19:22:43.553Z,33.13
2019-05-29T19:25:13.207Z,33.63
2019-05-29T19:27:43.004Z,36.97
2019-05-29T19:30:13.173Z,36.33
2019-05-29T19:32:42.581Z,31.17
2019-05-29T19:35:12.595Z,32.33
2019-05-29T19:37:42.478Z,30.13
2019-05-29T19:40:12.818Z,30.90
2019-05-29T19:42:42.558Z,34.57
2019-05-29T19:45:13.567Z,31.73
2019-05-29T19:47:46.203Z,31.90
2019-05-29T19:50:16.349Z,35.87
2019-05-29T19:52:46.367Z,32.57
2019-05-29T19:55:16.488Z,32.37
2019-05-29T19:57:55.465Z,31.27
2019-05-29T20:00:16.622Z,35.50
2019-05-29T20:02:46.690Z,32.13
2019-05-29T20:05:16.628Z,29.50
2019-05-29T20:07:47.054Z,32.70
2019-05-29T20:10:16.948Z,35.30
2019-05-29T20:12:46.999Z,38.70
2019-05-29T20:15:16.509Z,34.07
2019-05-29T20:17:46.434Z,33.27
2019-05-29T20:20:16.760Z,30.90
2019-05-29T20:22:47.527Z,31.80
2019-05-29T20:25:17.991Z,32.57
2019-05-29T20:27:49.078Z,36.73
2019-05-29T20:30:19.197Z,35.10
2019-05-29T20:32:48.867Z,36.13
2019-05-29T20:35:19.449Z,32.50
2019-05-29T20:37:49.315Z,36.33
2019-05-29T20:40:19.159Z,34.97
2019-05-29T20:42:49.252Z,36.00
2019-05-29T20:45:19.059Z,35.87
2019-05-29T20:47:48.938Z,33.70
2019-05-29T20:50:18.532Z,36.97
2019-05-29T20:52:48.930Z,33.43
2019-05-29T20:55:18.370Z,31.17
2019-05-29T20:57:48.495Z,33.77
2019-05-29T21:00:18.267Z,31.17
2019-05-29T21:02:48.288Z,30.27
2019-05-29T21:05:18.073Z,29.43
2019-05-29T21:07:48.211Z,33.70
2019-05-29T21:10:17.807Z,29.50
2019-05-29T21:12:47.972Z,32.77
2019-05-29T21:15:18.621Z,32.90
2019-05-29T21:17:48.176Z,32.47
2019-05-29T21:20:18.539Z,38.33
2019-05-29T21:22:48.286Z,36.50
2019-05-29T21:25:19.352Z,36.17
2019-05-29T21:27:49.612Z,37.10
2019-05-29T21:30:19.490Z,35.20
2019-05-29T21:32:49.885Z,32.10
2019-05-29T21:35:19.662Z,33.03
2019-05-29T21:37:49.270Z,30.57
2019-05-29T21:40:19.033Z,32.27
2019-05-29T21:42:49.247Z,31.83
2019-05-29T21:45:19.995Z,31.60
2019-05-29T21:47:49.738Z,31.47
2019-05-29T21:50:19.178Z,32.10
2019-05-29T21:52:48.964Z,32.77
2019-05-29T21:55:18.488Z,32.57
2019-05-29T21:57:50.400Z,33.10
2019-05-29T22:00:20.451Z,33.13
2019-05-29T22:02:50.253Z,31.17
2019-05-29T22:05:19.973Z,33.80
2019-05-29T22:07:49.464Z,36.80
2019-05-29T22:10:19.803Z,33.60
2019-05-29T22:12:50.246Z,34.30
2019-05-29T22:15:18.980Z,41.73
2019-05-29T22:17:50.571Z,30.53
2019-05-29T22:20:19.478Z,34.10
2019-05-29T22:22:50.960Z,32.17
2019-05-29T22:25:19.810Z,39.80
2019-05-29T22:27:51.174Z,34.10
2019-05-29T22:30:19.907Z,34.47
2019-05-29T22:32:49.605Z,32.93
2019-05-29T22:35:18.952Z,39.70
2019-05-29T22:37:49.146Z,31.93
2019-05-29T22:40:19.331Z,30.73
2019-05-29T22:42:49.082Z,35.60
2019-05-29T22:45:19.060Z,30.33
2019-05-29T22:47:48.781Z,39.80
2019-05-29T22:50:19.057Z,29.40
2019-05-29T22:52:48.927Z,32.23
2019-05-29T22:55:18.997Z,33.07
2019-05-29T22:57:48.600Z,30.27
2019-05-29T23:00:18.530Z,31.70
2019-05-29T23:02:48.602Z,30.33
2019-05-29T23:05:18.483Z,33.00
2019-05-29T23:07:47.858Z,33.07
2019-05-29T23:10:17.712Z,34.77
2019-05-29T23:12:47.636Z,42.13
2019-05-29T23:15:17.496Z,31.70
2019-05-29T23:17:47.770Z,34.80
2019-05-29T23:20:17.237Z,38.57
2019-05-29T23:22:46.860Z,36.73
2019-05-29T23:25:17.515Z,36.20
2019-05-29T23:27:47.197Z,36.53
2019-05-29T23:30:17.564Z,37.53
2019-05-29T23:32:47.979Z,34.97
2019-05-29T23:35:17.859Z,42.97
2019-05-29T23:37:48.157Z,42.10
2019-05-29T23:40:17.833Z,31.50
2019-05-29T23:42:48.155Z,37.90
2019-05-29T23:45:18.362Z,44.50
2019-05-29T23:47:48.460Z,39.67
2019-05-29T23:50:18.356Z,39.50
2019-05-29T23:52:48.019Z,38.10
2019-05-29T23:55:18.114Z,43.87
2019-05-29T23:57:48.038Z,46.53
